Time;durP1;ratioP1;P1;durP2;ratioP2;P2;SDS_P1;SDS_P2;PMS_P1;PMS_P2;Temp;Humidity;BMP_temperature;BMP_pressure;BME280_temperature;BME280_humidity;BME280_pressure;Samples;Min_cycle;Max_cycle;Signal;HPM_P1;HPM_P2
2022/03/25 00:01:53;;;;;;;14.23;8.23;;;;;;;;;;4959395;28;20038;-71
2022/03/25 00:04:18;;;;;;;11.82;7.88;;;;;;;;;;4963228;28;20489;-71
2022/03/25 00:06:44;;;;;;;14.43;8.52;;;;;;;;;;4962966;28;20472;-71
2022/03/25 00:09:10;;;;;;;13.93;8.70;;;;;;;;;;4960248;28;20068;-71
2022/03/25 00:11:35;;;;;;;14.07;8.55;;;;;;;;;;4955025;28;20081;-71
2022/03/25 00:14:01;;;;;;;22.27;8.90;;;;;;;;;;4963130;28;20054;-71
2022/03/25 00:16:27;;;;;;;12.15;8.35;;;;;;;;;;4960268;28;20487;-71
2022/03/25 00:18:54;;;;;;;14.13;8.10;;;;;;;;;;4963067;28;20039;-71
2022/03/25 00:21:20;;;;;;;14.77;8.73;;;;;;;;;;4945481;28;20122;-71
2022/03/25 00:23:45;;;;;;;16.63;8.05;;;;;;;;;;4954820;28;20059;-71
2022/03/25 00:26:11;;;;;;;15.77;8.57;;;;;;;;;;4962936;28;20427;-71
2022/03/25 00:28:37;;;;;;;13.98;8.07;;;;;;;;;;4962669;28;20034;-71
2022/03/25 00:31:07;;;;;;;17.58;8.63;;;;;;;;;;4942035;28;20050;-71
2022/03/25 00:33:39;;;;;;;14.50;8.95;;;;;;;;;;4946795;28;20125;-71
2022/03/25 00:36:07;;;;;;;11.82;7.93;;;;;;;;;;4932298;28;20027;-71
2022/03/25 00:38:32;;;;;;;13.82;8.30;;;;;;;;;;4952453;28;20109;-71
2022/03/25 00:40:58;;;;;;;16.08;8.63;;;;;;;;;;4954524;28;20097;-71
2022/03/25 00:43:24;;;;;;;14.88;8.68;;;;;;;;;;4944540;28;20059;-71
2022/03/25 00:45:51;;;;;;;13.73;8.55;;;;;;;;;;4950316;28;20034;-71
2022/03/25 00:48:17;;;;;;;14.40;8.35;;;;;;;;;;4938109;28;20727;-71
2022/03/25 00:50:43;;;;;;;12.75;7.95;;;;;;;;;;4928739;28;20046;-71
2022/03/25 00:53:11;;;;;;;18.23;8.32;;;;;;;;;;4957222;28;20030;-71
2022/03/25 00:55:38;;;;;;;15.85;8.50;;;;;;;;;;4946710;28;20035;-71
2022/03/25 00:58:04;;;;;;;15.98;9.20;;;;;;;;;;4957875;28;20039;-71
2022/03/25 01:00:30;;;;;;;15.88;8.88;;;;;;;;;;4926786;28;20027;-71
2022/03/25 01:02:55;;;;;;;13.98;7.85;;;;;;;;;;4950780;28;20043;-71
2022/03/25 01:05:22;;;;;;;23.70;9.40;;;;;;;;;;4944272;28;20576;-71
2022/03/25 01:07:47;;;;;;;13.30;9.25;;;;;;;;;;4943420;28;20054;-71
2022/03/25 01:10:13;;;;;;;13.93;8.50;;;;;;;;;;4947901;28;20125;-71
2022/03/25 01:12:39;;;;;;;14.52;8.50;;;;;;;;;;4925880;28;20031;-71
2022/03/25 01:15:05;;;;;;;14.75;9.40;;;;;;;;;;4954871;28;20093;-71
2022/03/25 01:17:31;;;;;;;13.43;9.02;;;;;;;;;;4934280;28;20484;-71
2022/03/25 01:19:56;;;;;;;18.05;9.30;;;;;;;;;;4933255;28;20032;-71
2022/03/25 01:22:22;;;;;;;16.52;8.73;;;;;;;;;;4958310;28;20043;-71
2022/03/25 01:24:48;;;;;;;16.50;9.07;;;;;;;;;;4944448;28;20031;-71
2022/03/25 01:27:14;;;;;;;13.68;9.50;;;;;;;;;;4952575;28;20039;-71
2022/03/25 01:29:39;;;;;;;13.07;8.43;;;;;;;;;;4952480;28;20057;-71
2022/03/25 01:32:07;;;;;;;13.07;8.60;;;;;;;;;;4954019;28;20047;-71
2022/03/25 01:34:33;;;;;;;16.77;9.55;;;;;;;;;;4950383;28;20031;-71
2022/03/25 01:36:59;;;;;;;18.52;9.75;;;;;;;;;;4932633;28;20102;-71
2022/03/25 01:39:26;;;;;;;22.77;9.90;;;;;;;;;;4929070;28;20050;-70
2022/03/25 01:41:55;;;;;;;16.35;10.65;;;;;;;;;;4950719;28;20062;-71
2022/03/25 01:44:25;;;;;;;20.95;10.93;;;;;;;;;;4945770;28;20400;-71
2022/03/25 01:46:52;;;;;;;19.35;10.63;;;;;;;;;;4926923;28;20042;-71
2022/03/25 01:49:18;;;;;;;15.75;9.60;;;;;;;;;;4954203;28;20084;-71
2022/03/25 01:51:44;;;;;;;17.02;10.52;;;;;;;;;;4951452;28;20473;-71
2022/03/25 01:54:17;;;;;;;23.73;11.02;;;;;;;;;;4926094;28;20151;-71
2022/03/25 01:56:43;;;;;;;17.75;11.40;;;;;;;;;;4959864;28;20066;-71
2022/03/25 01:59:09;;;;;;;18.23;10.60;;;;;;;;;;4936528;28;20568;-71
2022/03/25 02:01:34;;;;;;;17.80;10.85;;;;;;;;;;4941746;28;20043;-71
2022/03/25 02:04:00;;;;;;;20.08;10.90;;;;;;;;;;4961882;28;20039;-70
2022/03/25 02:06:25;;;;;;;24.20;9.27;;;;;;;;;;4928849;28;20051;-71
2022/03/25 02:08:51;;;;;;;18.50;10.35;;;;;;;;;;4944394;28;20066;-71
2022/03/25 02:11:18;;;;;;;15.38;9.93;;;;;;;;;;4958450;28;20113;-71
2022/03/25 02:13:45;;;;;;;19.10;11.00;;;;;;;;;;4936060;28;20131;-71
2022/03/25 02:16:10;;;;;;;17.27;8.82;;;;;;;;;;4932443;28;20496;-71
2022/03/25 02:18:36;;;;;;;15.32;9.32;;;;;;;;;;4947850;28;20046;-71
2022/03/25 02:21:02;;;;;;;14.73;8.93;;;;;;;;;;4946801;28;20034;-71
2022/03/25 02:23:27;;;;;;;15.65;9.43;;;;;;;;;;4949290;28;20042;-71
2022/03/25 02:25:54;;;;;;;14.82;8.93;;;;;;;;;;4947451;28;20031;-71
2022/03/25 02:28:21;;;;;;;16.75;9.27;;;;;;;;;;4944532;28;20085;-70
2022/03/25 02:30:49;;;;;;;17.88;8.60;;;;;;;;;;4941654;28;20106;-70
2022/03/25 02:33:15;;;;;;;16.05;8.35;;;;;;;;;;4954003;28;20074;-71
2022/03/25 02:35:47;;;;;;;13.63;8.52;;;;;;;;;;4929779;28;20073;-71
2022/03/25 02:38:18;;;;;;;15.88;7.78;;;;;;;;;;4933964;28;20035;-70
2022/03/25 02:40:44;;;;;;;15.57;8.07;;;;;;;;;;4929711;28;20047;-71
2022/03/25 02:43:11;;;;;;;15.73;8.07;;;;;;;;;;4935182;28;20042;-71
2022/03/25 02:45:42;;;;;;;18.83;9.48;;;;;;;;;;4938021;28;20023;-70
2022/03/25 02:48:09;;;;;;;15.57;8.82;;;;;;;;;;4953509;28;20035;-71
2022/03/25 02:50:35;;;;;;;14.27;8.77;;;;;;;;;;4947764;28;20034;-70
2022/03/25 02:53:00;;;;;;;14.35;8.73;;;;;;;;;;4950160;28;20034;-71
2022/03/25 02:55:26;;;;;;;15.75;9.60;;;;;;;;;;4945848;28;20047;-70
2022/03/25 02:57:52;;;;;;;15.35;9.85;;;;;;;;;;4953561;28;20039;-71
2022/03/25 03:00:19;;;;;;;16.52;9.70;;;;;;;;;;4945298;28;20046;-70
2022/03/25 03:02:45;;;;;;;23.02;8.75;;;;;;;;;;4945635;28;20524;-70
2022/03/25 03:05:11;;;;;;;17.33;9.27;;;;;;;;;;4950204;28;20408;-71
2022/03/25 03:07:37;;;;;;;16.85;9.05;;;;;;;;;;4946113;28;20071;-70
2022/03/25 03:10:05;;;;;;;16.38;10.02;;;;;;;;;;4951473;28;20035;-71
2022/03/25 03:12:32;;;;;;;13.73;9.25;;;;;;;;;;4955266;28;20070;-71
2022/03/25 03:14:59;;;;;;;19.30;9.88;;;;;;;;;;4952526;28;20031;-71
2022/03/25 03:17:24;;;;;;;19.25;9.00;;;;;;;;;;4945663;28;20042;-71
2022/03/25 03:19:50;;;;;;;12.68;8.60;;;;;;;;;;4944818;28;20048;-71
2022/03/25 03:22:17;;;;;;;19.00;8.82;;;;;;;;;;4959236;28;20038;-71
2022/03/25 03:24:43;;;;;;;17.98;9.38;;;;;;;;;;4963338;28;20138;-71
2022/03/25 03:27:08;;;;;;;19.15;9.52;;;;;;;;;;4956598;28;20130;-70
2022/03/25 03:29:34;;;;;;;19.00;9.55;;;;;;;;;;4945505;28;20097;-71
2022/03/25 03:32:00;;;;;;;18.30;9.77;;;;;;;;;;4949239;28;20074;-70
2022/03/25 03:34:25;;;;;;;21.67;9.27;;;;;;;;;;4947615;28;20496;-71
2022/03/25 03:36:50;;;;;;;18.48;9.55;;;;;;;;;;4944730;28;20107;-71
2022/03/25 03:39:16;;;;;;;17.15;9.30;;;;;;;;;;4959496;28;20407;-71
2022/03/25 03:41:42;;;;;;;15.20;8.98;;;;;;;;;;4945993;28;20055;-71
2022/03/25 03:44:07;;;;;;;18.52;9.30;;;;;;;;;;4944519;28;20035;-71
2022/03/25 03:46:33;;;;;;;12.85;7.97;;;;;;;;;;4944956;28;20042;-71
2022/03/25 03:49:01;;;;;;;16.58;9.35;;;;;;;;;;4950937;28;20412;-70
2022/03/25 03:51:27;;;;;;;14.85;8.35;;;;;;;;;;4957141;28;20123;-71
2022/03/25 03:53:52;;;;;;;14.80;9.07;;;;;;;;;;4952527;28;20101;-70
2022/03/25 03:56:18;;;;;;;15.57;9.13;;;;;;;;;;4963169;28;20035;-70
2022/03/25 03:58:43;;;;;;;20.45;9.40;;;;;;;;;;4963211;28;20050;-70
2022/03/25 04:01:10;;;;;;;20.38;9.52;;;;;;;;;;4954440;28;20035;-71
2022/03/25 04:03:35;;;;;;;18.63;9.52;;;;;;;;;;4962434;28;20054;-70
2022/03/25 04:06:01;;;;;;;16.10;10.02;;;;;;;;;;4962778;28;20038;-71
2022/03/25 04:08:27;;;;;;;17.13;10.23;;;;;;;;;;4963198;28;20061;-70
2022/03/25 04:10:52;;;;;;;16.92;9.23;;;;;;;;;;4957290;28;20039;-70
2022/03/25 04:13:18;;;;;;;16.10;9.70;;;;;;;;;;4958657;28;20507;-70
2022/03/25 04:15:43;;;;;;;16.73;9.20;;;;;;;;;;4959947;28;20047;-70
2022/03/25 04:18:08;;;;;;;16.02;9.43;;;;;;;;;;4963032;28;20065;-70
2022/03/25 04:20:34;;;;;;;16.38;9.35;;;;;;;;;;4962098;28;20046;-70
2022/03/25 04:23:00;;;;;;;16.40;10.38;;;;;;;;;;4947334;28;20031;-70
2022/03/25 04:25:25;;;;;;;17.08;9.82;;;;;;;;;;4947474;28;20408;-70
2022/03/25 04:27:53;;;;;;;18.05;9.20;;;;;;;;;;4943275;28;20497;-70
2022/03/25 04:30:27;;;;;;;16.55;10.00;;;;;;;;;;4947345;28;20118;-70
2022/03/25 04:32:54;;;;;;;14.80;9.73;;;;;;;;;;4951236;28;20039;-70
2022/03/25 04:35:20;;;;;;;15.60;9.65;;;;;;;;;;4954752;28;20031;-70
2022/03/25 04:37:46;;;;;;;15.52;9.45;;;;;;;;;;4943525;28;20110;-70
2022/03/25 04:40:17;;;;;;;16.52;9.18;;;;;;;;;;4946701;28;20054;-70
2022/03/25 04:42:46;;;;;;;17.98;9.15;;;;;;;;;;4947081;28;20051;-70
2022/03/25 04:45:12;;;;;;;16.98;9.95;;;;;;;;;;4945802;28;20038;-70
2022/03/25 04:47:37;;;;;;;16.48;9.63;;;;;;;;;;4943525;28;20031;-70
2022/03/25 04:50:03;;;;;;;17.67;9.20;;;;;;;;;;4943524;28;20106;-70
2022/03/25 04:52:29;;;;;;;15.82;9.43;;;;;;;;;;4943350;28;20039;-70
2022/03/25 04:54:54;;;;;;;22.33;9.52;;;;;;;;;;4948415;28;20035;-70
2022/03/25 04:57:19;;;;;;;17.52;8.95;;;;;;;;;;4944038;28;20396;-70
2022/03/25 04:59:45;;;;;;;13.32;8.70;;;;;;;;;;4953592;28;20038;-70
2022/03/25 05:02:10;;;;;;;16.55;8.98;;;;;;;;;;4959358;28;20039;-70
2022/03/25 05:04:36;;;;;;;17.33;9.15;;;;;;;;;;4956715;28;20035;-70
2022/03/25 05:07:02;;;;;;;21.25;8.50;;;;;;;;;;4954080;28;20035;-70
2022/03/25 05:09:27;;;;;;;15.75;8.70;;;;;;;;;;4951489;28;20481;-70
2022/03/25 05:11:53;;;;;;;12.52;8.45;;;;;;;;;;4962321;28;20496;-70
2022/03/25 05:14:19;;;;;;;16.05;10.00;;;;;;;;;;4957166;28;20042;-70
2022/03/25 05:16:44;;;;;;;14.65;8.63;;;;;;;;;;4957907;28;20100;-69
2022/03/25 05:19:10;;;;;;;16.90;9.15;;;;;;;;;;4955442;28;20077;-70
2022/03/25 05:21:37;;;;;;;17.10;10.15;;;;;;;;;;4958508;28;20043;-70
2022/03/25 05:24:02;;;;;;;17.23;9.65;;;;;;;;;;4949316;28;20043;-70
2022/03/25 05:26:28;;;;;;;15.43;8.80;;;;;;;;;;4945025;28;20039;-70
2022/03/25 05:28:53;;;;;;;16.10;9.25;;;;;;;;;;4942911;28;20035;-70
2022/03/25 05:31:19;;;;;;;20.08;9.23;;;;;;;;;;4952418;28;20477;-70
2022/03/25 05:33:44;;;;;;;19.67;9.48;;;;;;;;;;4943016;28;20035;-70
2022/03/25 05:36:10;;;;;;;19.52;9.77;;;;;;;;;;4951076;28;20046;-70
2022/03/25 05:38:35;;;;;;;15.00;9.07;;;;;;;;;;4943199;28;20050;-69
2022/03/25 05:41:01;;;;;;;14.75;9.10;;;;;;;;;;4950546;28;20031;-70
2022/03/25 05:43:26;;;;;;;15.98;9.48;;;;;;;;;;4958558;28;20081;-70
2022/03/25 05:45:52;;;;;;;17.38;9.32;;;;;;;;;;4956083;28;20157;-69
2022/03/25 05:48:17;;;;;;;18.63;9.63;;;;;;;;;;4952266;28;20038;-69
2022/03/25 05:50:43;;;;;;;15.63;8.73;;;;;;;;;;4950400;28;20039;-69
2022/03/25 05:53:08;;;;;;;17.27;8.70;;;;;;;;;;4943026;28;20469;-69
2022/03/25 05:55:33;;;;;;;16.77;8.52;;;;;;;;;;4964873;28;20037;-70
2022/03/25 05:57:59;;;;;;;13.70;8.30;;;;;;;;;;4960062;28;20097;-69
2022/03/25 06:00:25;;;;;;;13.63;8.05;;;;;;;;;;4961183;28;20043;-70
2022/03/25 06:02:50;;;;;;;20.30;8.25;;;;;;;;;;4937166;28;20034;-70
2022/03/25 06:05:17;;;;;;;15.43;8.30;;;;;;;;;;4959163;28;20057;-70
2022/03/25 06:07:44;;;;;;;13.90;7.75;;;;;;;;;;4961957;28;20555;-70
2022/03/25 06:10:12;;;;;;;14.88;8.90;;;;;;;;;;4958204;28;20050;-70
2022/03/25 06:12:39;;;;;;;16.10;9.07;;;;;;;;;;4958856;28;20039;-70
2022/03/25 06:15:05;;;;;;;11.30;7.95;;;;;;;;;;4948630;28;20058;-69
2022/03/25 06:17:30;;;;;;;15.00;8.65;;;;;;;;;;4954073;28;20412;-69
2022/03/25 06:19:56;;;;;;;12.48;8.05;;;;;;;;;;4956190;28;20035;-69
2022/03/25 06:22:24;;;;;;;11.95;7.72;;;;;;;;;;4958908;28;20065;-69
2022/03/25 06:24:53;;;;;;;14.32;8.20;;;;;;;;;;4945893;28;20039;-69
2022/03/25 06:27:20;;;;;;;12.50;8.55;;;;;;;;;;4960040;28;20859;-69
2022/03/25 06:29:45;;;;;;;15.98;7.95;;;;;;;;;;4959715;28;20044;-69
2022/03/25 06:32:11;;;;;;;13.10;7.78;;;;;;;;;;4958169;28;20147;-69
2022/03/25 06:34:37;;;;;;;11.88;8.10;;;;;;;;;;4956216;28;20019;-69
2022/03/25 06:37:03;;;;;;;13.32;8.00;;;;;;;;;;4956082;28;20247;-69
2022/03/25 06:39:29;;;;;;;10.50;7.57;;;;;;;;;;4957016;28;20035;-69
2022/03/25 06:41:54;;;;;;;13.75;7.90;;;;;;;;;;4963229;28;20041;-69
2022/03/25 06:44:20;;;;;;;11.25;7.53;;;;;;;;;;4962164;28;20047;-69
2022/03/25 06:46:45;;;;;;;13.85;8.15;;;;;;;;;;4952221;28;20121;-69
2022/03/25 06:49:11;;;;;;;11.68;8.32;;;;;;;;;;4954892;28;20043;-69
2022/03/25 06:51:37;;;;;;;20.20;11.13;;;;;;;;;;4960654;28;20038;-69
2022/03/25 06:54:03;;;;;;;15.05;8.00;;;;;;;;;;4957764;28;20081;-69
2022/03/25 06:56:28;;;;;;;25.52;8.75;;;;;;;;;;4951262;28;20400;-70
2022/03/25 06:58:55;;;;;;;15.20;8.80;;;;;;;;;;4959692;28;20027;-69
2022/03/25 07:01:21;;;;;;;20.65;8.73;;;;;;;;;;4959653;28;20030;-69
2022/03/25 07:03:47;;;;;;;17.92;7.65;;;;;;;;;;4963148;28;20078;-70
2022/03/25 07:06:15;;;;;;;13.18;7.93;;;;;;;;;;4963801;28;20030;-69
2022/03/25 07:08:43;;;;;;;15.15;7.75;;;;;;;;;;4956236;28;20420;-69
2022/03/25 07:11:08;;;;;;;12.32;8.02;;;;;;;;;;4964032;28;20084;-68
2022/03/25 07:13:34;;;;;;;13.27;7.53;;;;;;;;;;4964220;28;20396;-69
2022/03/25 07:16:00;;;;;;;13.52;7.75;;;;;;;;;;4956602;28;20706;-70
2022/03/25 07:18:25;;;;;;;17.23;8.30;;;;;;;;;;4955869;28;20163;-70
2022/03/25 07:20:50;;;;;;;15.70;8.23;;;;;;;;;;4947945;28;20041;-70
2022/03/25 07:23:16;;;;;;;13.93;7.70;;;;;;;;;;4963756;28;20043;-70
2022/03/25 07:25:41;;;;;;;11.35;7.60;;;;;;;;;;4960265;28;20137;-69
2022/03/25 07:28:07;;;;;;;10.10;7.28;;;;;;;;;;4960477;28;20041;-69
2022/03/25 07:30:32;;;;;;;13.18;7.63;;;;;;;;;;4951582;28;20039;-70
2022/03/25 07:32:58;;;;;;;12.15;7.18;;;;;;;;;;4957823;28;20023;-69
2022/03/25 07:35:24;;;;;;;12.55;7.13;;;;;;;;;;4960138;28;20400;-70
2022/03/25 07:37:49;;;;;;;10.77;7.47;;;;;;;;;;4949849;28;20070;-69
2022/03/25 07:40:15;;;;;;;10.20;7.03;;;;;;;;;;4957055;28;20050;-70
2022/03/25 07:42:42;;;;;;;13.95;7.30;;;;;;;;;;4952130;28;20054;-69
2022/03/25 07:45:09;;;;;;;9.57;6.65;;;;;;;;;;4963877;28;20035;-70
2022/03/25 07:47:45;;;;;;;10.23;5.95;;;;;;;;;;4960520;28;20117;-69
2022/03/25 07:50:12;;;;;;;12.43;6.70;;;;;;;;;;4953795;28;20098;-70
2022/03/25 07:52:37;;;;;;;9.25;6.85;;;;;;;;;;4956531;28;20049;-70
2022/03/25 07:55:04;;;;;;;11.50;7.82;;;;;;;;;;4963292;28;20027;-69
2022/03/25 07:57:30;;;;;;;9.80;6.72;;;;;;;;;;4958737;28;20121;-69
2022/03/25 07:59:55;;;;;;;15.15;6.72;;;;;;;;;;4958637;28;20038;-70
2022/03/25 08:02:20;;;;;;;11.05;7.28;;;;;;;;;;4952581;28;20047;-71
2022/03/25 08:04:46;;;;;;;17.27;7.45;;;;;;;;;;4945643;28;20031;-70
2022/03/25 08:07:11;;;;;;;11.60;7.25;;;;;;;;;;4945009;28;20105;-70
2022/03/25 08:09:37;;;;;;;10.48;6.78;;;;;;;;;;4944409;28;20438;-69
2022/03/25 08:12:02;;;;;;;14.95;7.63;;;;;;;;;;4947295;28;20405;-69
2022/03/25 08:14:29;;;;;;;18.83;7.50;;;;;;;;;;4948483;28;20042;-70
2022/03/25 08:16:54;;;;;;;14.10;8.40;;;;;;;;;;4949379;28;20039;-70
2022/03/25 08:19:20;;;;;;;11.20;7.22;;;;;;;;;;4944430;28;20031;-72
2022/03/25 08:21:45;;;;;;;15.13;7.90;;;;;;;;;;4953540;28;21006;-71
2022/03/25 08:29:38;;;;;;;16.50;7.22;;;;;;;;;;4948802;28;21043;-70
2022/03/25 08:32:04;;;;;;;18.58;7.63;;;;;;;;;;4962039;28;20070;-72
2022/03/25 08:34:30;;;;;;;16.23;7.82;;;;;;;;;;4941052;28;20043;-71
2022/03/25 08:36:55;;;;;;;10.95;7.18;;;;;;;;;;4953007;28;20098;-69
2022/03/25 08:39:22;;;;;;;13.30;7.63;;;;;;;;;;4955946;28;20039;-70
2022/03/25 08:41:48;;;;;;;9.93;7.07;;;;;;;;;;4957252;28;20521;-70
2022/03/25 08:44:14;;;;;;;10.48;7.32;;;;;;;;;;4958091;28;20050;-70
2022/03/25 08:46:40;;;;;;;10.90;7.10;;;;;;;;;;4955943;28;20031;-70
2022/03/25 08:49:06;;;;;;;12.38;7.75;;;;;;;;;;4950744;28;20122;-70
2022/03/25 08:51:32;;;;;;;11.15;8.25;;;;;;;;;;4952005;28;20102;-70
2022/03/25 08:53:58;;;;;;;14.07;7.30;;;;;;;;;;4947642;28;20181;-70
2022/03/25 08:56:25;;;;;;;11.35;7.15;;;;;;;;;;4957135;28;20127;-71
2022/03/25 08:58:54;;;;;;;23.42;6.85;;;;;;;;;;4954667;28;20031;-72
2022/03/25 09:01:20;;;;;;;12.55;7.70;;;;;;;;;;4956790;28;20109;-71
2022/03/25 09:03:46;;;;;;;9.60;7.03;;;;;;;;;;4961824;28;20043;-69
2022/03/25 09:06:12;;;;;;;16.63;7.80;;;;;;;;;;4957213;28;20042;-70
2022/03/25 09:08:38;;;;;;;18.00;6.80;;;;;;;;;;4958711;28;20071;-71
2022/03/25 09:11:03;;;;;;;12.98;7.60;;;;;;;;;;4962179;28;20078;-71
2022/03/25 09:13:28;;;;;;;10.45;7.32;;;;;;;;;;4954936;28;20058;-71
2022/03/25 09:15:54;;;;;;;8.73;7.20;;;;;;;;;;4956292;28;20090;-71
2022/03/25 09:18:19;;;;;;;9.88;7.28;;;;;;;;;;4956333;28;20051;-70
2022/03/25 09:20:45;;;;;;;9.65;7.47;;;;;;;;;;4959392;28;20047;-71
2022/03/25 09:23:10;;;;;;;10.50;7.35;;;;;;;;;;4960107;28;20047;-70
2022/03/25 09:25:35;;;;;;;11.93;7.50;;;;;;;;;;4952207;28;20042;-72
2022/03/25 09:28:02;;;;;;;9.95;7.40;;;;;;;;;;4958718;28;20365;-71
2022/03/25 09:30:27;;;;;;;13.45;7.65;;;;;;;;;;4956035;28;20042;-71
2022/03/25 09:32:52;;;;;;;10.43;6.95;;;;;;;;;;4956782;28;20463;-72
2022/03/25 09:35:18;;;;;;;11.43;7.40;;;;;;;;;;4963183;28;20104;-71
2022/03/25 09:37:46;;;;;;;9.35;7.72;;;;;;;;;;4965509;28;20038;-71
2022/03/25 09:40:16;;;;;;;13.13;7.70;;;;;;;;;;4952689;28;20031;-71
2022/03/25 09:42:43;;;;;;;14.30;7.32;;;;;;;;;;4951281;28;20483;-69
2022/03/25 09:45:10;;;;;;;13.02;7.72;;;;;;;;;;4964364;28;20435;-71
2022/03/25 09:47:36;;;;;;;9.93;7.65;;;;;;;;;;4952543;28;20109;-71
2022/03/25 09:50:06;;;;;;;9.88;7.05;;;;;;;;;;4961291;28;20449;-70
2022/03/25 09:52:33;;;;;;;12.23;7.22;;;;;;;;;;4959989;28;20117;-68
2022/03/25 09:54:59;;;;;;;9.43;6.43;;;;;;;;;;4957617;28;20070;-70
2022/03/25 09:57:28;;;;;;;8.35;6.65;;;;;;;;;;4958024;28;20066;-71
2022/03/25 09:59:54;;;;;;;8.85;7.03;;;;;;;;;;4958109;28;20045;-71
2022/03/25 10:02:19;;;;;;;10.32;7.65;;;;;;;;;;4960344;28;20035;-71
2022/03/25 10:04:46;;;;;;;11.23;8.05;;;;;;;;;;4948312;28;20810;-69
2022/03/25 10:07:20;;;;;;;9.77;7.18;;;;;;;;;;4962981;28;20039;-68
2022/03/25 10:09:47;;;;;;;17.58;7.68;;;;;;;;;;4961023;28;20063;-70
2022/03/25 10:12:40;;;;;;;11.10;7.60;;;;;;;;;;4965539;28;21031;-69
2022/03/25 10:15:21;;;;;;;10.00;7.00;;;;;;;;;;4952879;28;20034;-70
2022/03/25 10:17:47;;;;;;;;;;;;;;;;;;4954517;28;20043;-69
2022/03/25 10:20:13;;;;;;;9.68;7.20;;;;;;;;;;4954339;28;19918;-69
2022/03/25 10:22:40;;;;;;;15.68;7.55;;;;;;;;;;4958004;28;20090;-69
2022/03/25 10:25:09;;;;;;;13.73;7.85;;;;;;;;;;4949862;28;20032;-70
2022/03/25 10:27:35;;;;;;;9.70;7.95;;;;;;;;;;4957995;28;20053;-71
2022/03/25 10:30:05;;;;;;;18.60;8.13;;;;;;;;;;4966833;28;20061;-70
2022/03/25 10:32:31;;;;;;;11.68;7.95;;;;;;;;;;4964122;28;20039;-71
2022/03/25 10:35:09;;;;;;;10.10;7.60;;;;;;;;;;4963246;28;20035;-72
2022/03/25 10:37:36;;;;;;;14.32;8.48;;;;;;;;;;4949984;28;20031;-70
2022/03/25 10:40:07;;;;;;;12.18;8.38;;;;;;;;;;4965368;28;20058;-69
2022/03/25 10:42:33;;;;;;;13.38;8.20;;;;;;;;;;4964708;28;20042;-68
2022/03/25 10:44:59;;;;;;;10.73;8.38;;;;;;;;;;4962047;28;20056;-72
2022/03/25 10:47:26;;;;;;;16.02;9.57;;;;;;;;;;4958431;28;20505;-71
2022/03/25 10:49:53;;;;;;;12.48;9.30;;;;;;;;;;4958247;28;20092;-70
2022/03/25 10:52:34;;;;;;;12.75;9.95;;;;;;;;;;4964807;28;20039;-72
2022/03/25 10:55:18;;;;;;;17.33;8.98;;;;;;;;;;4957250;28;20035;-70
2022/03/25 10:57:55;;;;;;;17.80;9.50;;;;;;;;;;4961937;28;20047;-70
2022/03/25 11:00:21;;;;;;;19.25;10.95;;;;;;;;;;4962048;28;20134;-70
2022/03/25 11:02:47;;;;;;;13.40;10.15;;;;;;;;;;4945325;28;20075;-72
2022/03/25 11:05:14;;;;;;;15.23;10.40;;;;;;;;;;4945191;28;20127;-71
2022/03/25 11:07:44;;;;;;;15.90;10.27;;;;;;;;;;4948350;28;20047;-71
2022/03/25 11:10:15;;;;;;;26.92;11.63;;;;;;;;;;4952604;28;20949;-69
2022/03/25 11:12:46;;;;;;;16.25;11.55;;;;;;;;;;4962331;28;20027;-70
2022/03/25 11:15:17;;;;;;;23.05;11.45;;;;;;;;;;4963155;28;20472;-71
2022/03/25 11:17:44;;;;;;;19.23;10.95;;;;;;;;;;4950546;28;20051;-71
2022/03/25 11:20:15;;;;;;;18.25;11.93;;;;;;;;;;4961452;28;20041;-71
2022/03/25 11:22:55;;;;;;;18.30;11.10;;;;;;;;;;4955178;28;20031;-72
2022/03/25 11:25:22;;;;;;;20.55;12.25;;;;;;;;;;4958624;28;20054;-72
2022/03/25 11:27:53;;;;;;;19.90;11.30;;;;;;;;;;4956385;28;20050;-71
2022/03/25 11:30:19;;;;;;;17.10;11.35;;;;;;;;;;4947183;28;20063;-73
2022/03/25 11:32:57;;;;;;;16.27;12.25;;;;;;;;;;4946261;28;20042;-71
2022/03/25 11:35:24;;;;;;;17.08;11.52;;;;;;;;;;4934094;28;20039;-71
2022/03/25 11:38:10;;;;;;;19.23;11.63;;;;;;;;;;4958067;28;20050;-71
2022/03/25 11:40:39;;;;;;;22.23;12.98;;;;;;;;;;4945337;28;20089;-70
2022/03/25 11:43:22;;;;;;;25.77;12.38;;;;;;;;;;4950596;28;20039;-71
2022/03/25 11:46:09;;;;;;;18.98;12.43;;;;;;;;;;4946730;28;20039;-70
2022/03/25 11:48:37;;;;;;;16.80;10.63;;;;;;;;;;4962480;28;20650;-70
2022/03/25 11:51:33;;;;;;;14.90;10.70;;;;;;;;;;4952602;28;20122;-72
2022/03/25 11:53:59;;;;;;;16.17;11.00;;;;;;;;;;4955944;28;20034;-68
2022/03/25 11:56:25;;;;;;;18.23;10.80;;;;;;;;;;4951234;28;20027;-69
2022/03/25 11:58:59;;;;;;;15.38;10.95;;;;;;;;;;4962407;28;20042;-73
2022/03/25 12:01:25;;;;;;;15.70;10.63;;;;;;;;;;4955827;28;20038;-68
2022/03/25 12:03:55;;;;;;;19.10;11.55;;;;;;;;;;4961387;28;20035;-75
2022/03/25 12:06:28;;;;;;;16.88;11.68;;;;;;;;;;4930664;28;20130;-70
2022/03/25 12:09:08;;;;;;;14.48;11.18;;;;;;;;;;4955850;28;20515;-72
2022/03/25 12:11:47;;;;;;;18.08;12.90;;;;;;;;;;4956668;28;20038;-71
2022/03/25 12:14:13;;;;;;;19.38;12.32;;;;;;;;;;4958780;28;20062;-75
2022/03/25 12:17:00;;;;;;;19.30;11.52;;;;;;;;;;4955802;28;20118;-70
2022/03/25 12:19:26;;;;;;;19.60;11.52;;;;;;;;;;4959194;28;20432;-74
2022/03/25 12:22:20;;;;;;;20.60;13.05;;;;;;;;;;4963028;28;20575;-69
2022/03/25 12:24:47;;;;;;;20.70;12.80;;;;;;;;;;4944415;28;20121;-70
2022/03/25 12:27:13;;;;;;;21.83;12.15;;;;;;;;;;4943273;28;21130;-71
2022/03/25 12:29:40;;;;;;;19.98;14.20;;;;;;;;;;4962269;28;20045;-70
2022/03/25 12:32:09;;;;;;;23.55;13.43;;;;;;;;;;4956262;28;20145;-69
2022/03/25 12:34:41;;;;;;;23.08;14.60;;;;;;;;;;4959766;28;20125;-71
2022/03/25 12:37:12;;;;;;;20.83;14.18;;;;;;;;;;4949730;28;20042;-70
2022/03/25 12:39:37;;;;;;;23.50;14.48;;;;;;;;;;4955345;28;20035;-72
2022/03/25 12:42:11;;;;;;;19.65;13.75;;;;;;;;;;4953784;28;20046;-75
2022/03/25 12:44:36;;;;;;;16.52;11.85;;;;;;;;;;4954326;28;20037;-69
2022/03/25 12:47:03;;;;;;;21.48;12.85;;;;;;;;;;4959272;28;20034;-71
2022/03/25 12:49:30;;;;;;;21.33;12.98;;;;;;;;;;4954994;28;20026;-70
2022/03/25 12:52:03;;;;;;;18.38;13.27;;;;;;;;;;4953994;28;20038;-70
2022/03/25 12:54:30;;;;;;;21.48;13.18;;;;;;;;;;4956621;28;20049;-74
2022/03/25 12:56:58;;;;;;;22.20;13.38;;;;;;;;;;4950546;28;20058;-74
2022/03/25 12:59:32;;;;;;;23.35;14.20;;;;;;;;;;4954499;28;20698;-71
2022/03/25 13:02:15;;;;;;;21.60;13.05;;;;;;;;;;4950963;28;20496;-72
2022/03/25 13:04:40;;;;;;;18.45;13.15;;;;;;;;;;4957682;28;20065;-69
2022/03/25 13:07:14;;;;;;;23.05;14.13;;;;;;;;;;4955640;28;20560;-70
2022/03/25 13:09:53;;;;;;;21.77;12.93;;;;;;;;;;4957589;28;20042;-70
2022/03/25 13:12:32;;;;;;;18.45;12.93;;;;;;;;;;4957649;28;20583;-71
2022/03/25 13:14:58;;;;;;;18.80;12.75;;;;;;;;;;4945380;28;20065;-70
2022/03/25 13:17:25;;;;;;;20.52;12.40;;;;;;;;;;4958780;28;20038;-70
2022/03/25 13:19:57;;;;;;;19.73;12.18;;;;;;;;;;4951574;28;20035;-74
2022/03/25 13:22:23;;;;;;;21.92;12.57;;;;;;;;;;4944692;28;20031;-74
2022/03/25 13:24:53;;;;;;;18.80;13.13;;;;;;;;;;4953894;28;20042;-69
2022/03/25 13:27:19;;;;;;;17.13;12.38;;;;;;;;;;4961938;28;20038;-70
2022/03/25 13:29:44;;;;;;;22.75;12.68;;;;;;;;;;4957117;28;20105;-71
2022/03/25 13:32:11;;;;;;;17.17;12.52;;;;;;;;;;4952908;28;20062;-70
2022/03/25 13:34:37;;;;;;;22.20;13.13;;;;;;;;;;4950759;28;20031;-68
2022/03/25 13:37:03;;;;;;;19.63;11.98;;;;;;;;;;4949620;28;20847;-71
2022/03/25 13:39:32;;;;;;;18.92;12.65;;;;;;;;;;4960027;28;20576;-72
2022/03/25 13:42:08;;;;;;;19.35;10.90;;;;;;;;;;4951084;28;20476;-70
2022/03/25 13:44:34;;;;;;;18.63;11.63;;;;;;;;;;4950296;28;20094;-70
2022/03/25 13:47:07;;;;;;;20.10;12.75;;;;;;;;;;4957776;28;20038;-69
2022/03/25 13:49:32;;;;;;;21.02;11.68;;;;;;;;;;4953075;28;20501;-69
2022/03/25 13:52:06;;;;;;;19.55;11.82;;;;;;;;;;4953821;28;20138;-73
2022/03/25 13:54:31;;;;;;;22.15;12.38;;;;;;;;;;4944883;28;20031;-71
2022/03/25 13:57:04;;;;;;;15.50;11.80;;;;;;;;;;4957680;28;20038;-70
2022/03/25 13:59:40;;;;;;;18.23;12.38;;;;;;;;;;4957968;28;20492;-70
2022/03/25 14:02:30;;;;;;;20.08;12.20;;;;;;;;;;4955054;28;20038;-74
2022/03/25 14:04:56;;;;;;;21.48;12.43;;;;;;;;;;4953752;28;20043;-73
2022/03/25 14:07:22;;;;;;;19.23;11.38;;;;;;;;;;4949281;28;20042;-69
2022/03/25 14:09:57;;;;;;;17.95;11.60;;;;;;;;;;4960304;28;20046;-68
2022/03/25 14:12:26;;;;;;;17.83;11.73;;;;;;;;;;4953467;28;20381;-75
2022/03/25 14:15:04;;;;;;;19.25;11.43;;;;;;;;;;4953281;28;20090;-70
2022/03/25 14:17:36;;;;;;;18.52;12.10;;;;;;;;;;4956737;28;20163;-68
2022/03/25 14:20:08;;;;;;;19.10;11.82;;;;;;;;;;4965096;28;20031;-73
2022/03/25 14:22:34;;;;;;;17.20;11.23;;;;;;;;;;4952330;28;20035;-75
2022/03/25 14:24:59;;;;;;;20.58;12.77;;;;;;;;;;4951026;28;20407;-70
2022/03/25 14:27:25;;;;;;;18.95;12.10;;;;;;;;;;4953429;28;20037;-69
2022/03/25 14:29:50;;;;;;;19.25;13.68;;;;;;;;;;4957231;28;20085;-70
2022/03/25 14:32:15;;;;;;;18.42;12.60;;;;;;;;;;4953911;28;20031;-71
2022/03/25 14:34:41;;;;;;;17.65;12.45;;;;;;;;;;4954848;28;20094;-66